Time;durP1;ratioP1;P1;durP2;ratioP2;P2;SDS_P1;SDS_P2;PMS_P1;PMS_P2;Temp;Humidity;BMP_temperature;BMP_pressure;BME280_temperature;BME280_humidity;BME280_pressure;Samples;Min_cycle;Max_cycle;Signal;HPM_P1;HPM_P2
2022/06/19 00:01:16;;;;;;;2.47;1.50;;;22.90;85.70;;;;;;5042738;28;20051;-79
2022/06/19 00:03:46;;;;;;;2.53;1.50;;;22.80;86.50;;;;;;5041265;28;20033;-78
2022/06/19 00:06:12;;;;;;;3.28;1.60;;;22.80;86.10;;;;;;5045485;28;20040;-79
2022/06/19 00:08:38;;;;;;;3.22;1.65;;;22.80;86.30;;;;;;5039690;28;20038;-79
2022/06/19 00:11:10;;;;;;;3.20;1.67;;;22.80;87.00;;;;;;5032266;28;20079;-79
2022/06/19 00:13:37;;;;;;;3.55;1.52;;;22.80;86.70;;;;;;5030395;28;20101;-79
2022/06/19 00:16:06;;;;;;;5.65;1.70;;;22.80;86.60;;;;;;5031878;28;20040;-78
2022/06/19 00:18:31;;;;;;;4.60;2.05;;;22.80;86.80;;;;;;5031020;28;20044;-78
2022/06/19 00:20:57;;;;;;;2.22;1.42;;;22.70;87.00;;;;;;5031360;28;20038;-78
2022/06/19 00:23:24;;;;;;;3.20;1.80;;;22.70;87.30;;;;;;5031470;28;20503;-79
2022/06/19 00:25:49;;;;;;;3.67;1.60;;;22.70;87.40;;;;;;5032045;28;20064;-78
2022/06/19 00:28:15;;;;;;;10.73;2.55;;;22.60;87.70;;;;;;5030290;28;20589;-79
2022/06/19 00:30:40;;;;;;;3.08;1.55;;;22.60;88.00;;;;;;5031815;28;20084;-79
2022/06/19 00:33:06;;;;;;;5.82;1.75;;;22.50;88.00;;;;;;5031113;28;20098;-80
2022/06/19 00:35:32;;;;;;;4.53;2.00;;;22.50;88.70;;;;;;5031032;28;20375;-79
2022/06/19 00:37:58;;;;;;;5.95;1.52;;;22.40;88.60;;;;;;5031172;28;20090;-79
2022/06/19 00:40:29;;;;;;;2.92;1.73;;;22.40;89.00;;;;;;5030926;28;20041;-80
2022/06/19 00:42:55;;;;;;;6.82;2.20;;;22.40;89.00;;;;;;5031436;28;20025;-79
2022/06/19 00:46:05;;;;;;;6.00;2.22;;;22.30;89.20;;;;;;5031451;28;20056;-79
2022/06/19 00:48:36;;;;;;;5.32;2.22;;;22.30;89.40;;;;;;5009114;28;20052;-79
2022/06/19 00:51:05;;;;;;;6.05;1.75;;;22.20;89.70;;;;;;5025774;28;20475;-79
2022/06/19 00:53:45;;;;;;;4.45;2.30;;;22.30;89.90;;;;;;5030843;28;20037;-80
2022/06/19 00:56:16;;;;;;;6.82;1.55;;;22.30;89.70;;;;;;5030994;28;20475;-79
2022/06/19 00:58:42;;;;;;;3.42;1.67;;;22.30;89.70;;;;;;5030882;28;20124;-79
2022/06/19 01:01:15;;;;;;;5.00;1.67;;;22.20;90.20;;;;;;5030605;28;20506;-80
2022/06/19 01:03:55;;;;;;;3.45;2.03;;;22.20;90.40;;;;;;5031621;28;20120;-79
2022/06/19 01:06:22;;;;;;;2.90;1.80;;;22.20;90.20;;;;;;5030759;28;20369;-78
2022/06/19 01:08:48;;;;;;;4.63;2.08;;;22.20;90.50;;;;;;5030692;28;20291;-80
2022/06/19 01:11:15;;;;;;;3.35;1.77;;;22.20;90.50;;;;;;5031023;28;20040;-79
2022/06/19 01:13:42;;;;;;;3.03;1.77;;;22.10;90.60;;;;;;5030671;28;20084;-80
2022/06/19 01:16:08;;;;;;;6.32;1.70;;;22.20;90.50;;;;;;5030578;28;20668;-79
2022/06/19 01:18:36;;;;;;;4.00;1.40;;;22.20;90.60;;;;;;5031026;28;20079;-80
2022/06/19 01:21:19;;;;;;;5.75;1.80;;;22.20;90.60;;;;;;5030644;28;20132;-79
2022/06/19 01:23:54;;;;;;;7.65;1.80;;;22.20;90.60;;;;;;5030748;28;20406;-79
2022/06/19 01:26:21;;;;;;;4.43;1.83;;;22.20;90.70;;;;;;5034501;28;20025;-78
2022/06/19 01:28:55;;;;;;;3.72;1.70;;;22.10;90.70;;;;;;5034743;28;20499;-78
2022/06/19 01:31:34;;;;;;;5.78;1.90;;;22.00;90.80;;;;;;5033476;28;20112;-78
2022/06/19 01:34:26;;;;;;;2.97;1.45;;;22.00;90.80;;;;;;5033964;28;20049;-79
2022/06/19 01:36:55;;;;;;;3.58;1.90;;;22.00;90.90;;;;;;5017633;28;20022;-79
2022/06/19 01:39:22;;;;;;;5.32;2.38;;;22.00;90.80;;;;;;5013499;28;20022;-79
2022/06/19 01:41:48;;;;;;;2.67;1.60;;;22.00;90.90;;;;;;5014551;28;20034;-79
2022/06/19 01:44:14;;;;;;;4.47;1.42;;;21.90;91.10;;;;;;5014440;28;20447;-80
2022/06/19 01:46:40;;;;;;;3.53;1.58;;;21.90;91.30;;;;;;5014364;28;20041;-78
2022/06/19 01:49:05;;;;;;;5.82;1.83;;;21.90;91.10;;;;;;5014237;28;20352;-78
2022/06/19 01:51:32;;;;;;;3.67;1.48;;;21.80;91.20;;;;;;5013659;28;20084;-80
2022/06/19 01:54:15;;;;;;;3.08;1.48;;;21.80;91.10;;;;;;5014489;28;20033;-78
2022/06/19 01:56:41;;;;;;;3.72;1.63;;;21.80;91.10;;;;;;5014471;28;20030;-79
2022/06/19 01:59:10;;;;;;;5.28;1.50;;;21.80;91.10;;;;;;5014259;28;20040;-79
2022/06/19 02:01:37;;;;;;;2.40;1.17;;;21.70;91.20;;;;;;5013580;28;20023;-77
2022/06/19 02:04:05;;;;;;;3.90;1.70;;;21.70;91.30;;;;;;5013888;28;20030;-78
2022/06/19 02:06:40;;;;;;;2.67;1.25;;;21.70;91.20;;;;;;5014472;28;20022;-80
2022/06/19 02:09:07;;;;;;;4.57;1.33;;;21.70;91.30;;;;;;5013000;28;20121;-79
2022/06/19 02:11:34;;;;;;;2.33;1.50;;;21.70;91.50;;;;;;5014038;28;20120;-80
2022/06/19 02:14:03;;;;;;;2.75;1.48;;;21.60;91.30;;;;;;5014142;28;20030;-80
2022/06/19 02:16:29;;;;;;;3.47;1.40;;;21.60;91.40;;;;;;5013868;28;20030;-78
2022/06/19 02:18:55;;;;;;;2.08;1.13;;;21.50;91.40;;;;;;5014321;28;20022;-78
2022/06/19 02:21:42;;;;;;;3.17;1.42;;;21.50;91.30;;;;;;5013804;28;20026;-78
2022/06/19 02:24:11;;;;;;;2.20;1.40;;;21.50;91.40;;;;;;5013875;28;20042;-77
2022/06/19 02:26:38;;;;;;;3.80;1.25;;;21.50;91.40;;;;;;5013759;28;20030;-78
2022/06/19 02:29:09;;;;;;;1.58;1.13;;;21.40;91.50;;;;;;5013708;28;20514;-78
2022/06/19 02:31:36;;;;;;;1.85;1.20;;;21.40;91.50;;;;;;5012810;28;20025;-79
2022/06/19 02:34:05;;;;;;;;;;;21.30;91.60;;;;;;5012967;28;20056;-79
2022/06/19 02:36:41;;;;;;;2.72;1.55;;;21.30;91.70;;;;;;5013138;28;19933;-80
2022/06/19 02:39:20;;;;;;;7.05;1.50;;;21.20;91.90;;;;;;5013461;28;20030;-78
2022/06/19 02:41:54;;;;;;;3.50;1.70;;;21.10;92.00;;;;;;5013403;28;20030;-78
2022/06/19 02:44:20;;;;;;;6.35;1.50;;;21.10;91.90;;;;;;5012204;28;20133;-78
2022/06/19 02:46:46;;;;;;;4.50;1.50;;;21.10;92.10;;;;;;5013356;28;20203;-79
2022/06/19 02:49:12;;;;;;;2.85;1.40;;;21.10;92.00;;;;;;5013311;28;20037;-78
2022/06/19 02:51:38;;;;;;;3.05;1.30;;;21.00;92.00;;;;;;5013724;28;20046;-78
2022/06/19 02:54:03;;;;;;;1.83;1.00;;;21.00;92.10;;;;;;5013254;28;20448;-79
2022/06/19 02:56:29;;;;;;;3.58;1.02;;;21.00;92.10;;;;;;5013262;28;20108;-78
2022/06/19 02:58:55;;;;;;;2.47;1.10;;;20.90;92.10;;;;;;5013040;28;20025;-79
2022/06/19 03:01:20;;;;;;;4.00;1.40;;;20.90;92.20;;;;;;5013094;28;20025;-79
2022/06/19 03:03:46;;;;;;;5.68;1.73;;;20.90;92.10;;;;;;5013390;28;20027;-78
2022/06/19 03:06:12;;;;;;;2.95;1.10;;;20.90;92.10;;;;;;5013224;28;20034;-78
2022/06/19 03:08:37;;;;;;;2.40;1.27;;;20.90;92.10;;;;;;5012982;28;20037;-79
2022/06/19 03:11:07;;;;;;;1.65;0.98;;;20.90;92.20;;;;;;5012777;28;20109;-81
2022/06/19 03:13:33;;;;;;;3.42;1.20;;;20.80;92.20;;;;;;5011588;28;20053;-80
2022/06/19 03:16:07;;;;;;;1.88;1.30;;;20.80;92.10;;;;;;5012714;28;20444;-79
2022/06/19 03:18:35;;;;;;;6.47;1.40;;;20.80;92.40;;;;;;5013126;28;20022;-81
2022/06/19 03:21:00;;;;;;;2.05;1.08;;;20.70;92.30;;;;;;5011641;28;20026;-80
2022/06/19 03:23:27;;;;;;;3.60;1.35;;;20.70;92.10;;;;;;5012477;28;20044;-81
2022/06/19 03:25:53;;;;;;;1.95;1.02;;;20.70;92.20;;;;;;5012457;28;20490;-80
2022/06/19 03:28:19;;;;;;;1.67;0.90;;;20.70;92.30;;;;;;5012186;28;20088;-81
2022/06/19 03:30:44;;;;;;;1.70;1.23;;;20.70;92.20;;;;;;5012992;28;20025;-81
2022/06/19 03:33:10;;;;;;;2.85;1.00;;;20.60;92.30;;;;;;5011152;28;20076;-81
2022/06/19 03:35:36;;;;;;;2.33;0.90;;;20.70;92.20;;;;;;5012203;28;20096;-79
2022/06/19 03:38:01;;;;;;;1.70;1.00;;;20.60;92.20;;;;;;5012281;28;20048;-79
2022/06/19 03:40:27;;;;;;;2.03;1.17;;;20.60;92.10;;;;;;5012337;28;20033;-79
2022/06/19 03:42:53;;;;;;;2.40;1.10;;;20.60;92.10;;;;;;5012466;28;20384;-80
2022/06/19 03:45:18;;;;;;;6.13;2.45;;;20.60;92.10;;;;;;5012197;28;20026;-80
2022/06/19 03:47:44;;;;;;;2.58;1.10;;;20.60;92.20;;;;;;5011817;28;20499;-79
2022/06/19 03:50:16;;;;;;;4.10;1.15;;;20.50;92.40;;;;;;5012130;28;20384;-79
2022/06/19 03:52:41;;;;;;;4.43;0.90;;;20.50;92.50;;;;;;5011935;28;20049;-80
2022/06/19 03:55:07;;;;;;;5.60;1.20;;;20.50;92.50;;;;;;5012028;28;20395;-79
2022/06/19 03:57:33;;;;;;;1.70;0.95;;;20.50;92.50;;;;;;5012375;28;20037;-80
2022/06/19 03:59:59;;;;;;;2.65;0.80;;;20.50;92.50;;;;;;5012351;28;20030;-81
2022/06/19 04:02:25;;;;;;;2.08;0.90;;;20.40;92.60;;;;;;5011912;28;20045;-81
2022/06/19 04:04:50;;;;;;;1.70;1.05;;;20.40;92.70;;;;;;5011771;28;20037;-81
2022/06/19 04:07:16;;;;;;;4.68;1.85;;;20.40;92.80;;;;;;5010672;28;20026;-80
2022/06/19 04:09:43;;;;;;;2.53;1.15;;;20.40;93.00;;;;;;5012318;28;20095;-80
2022/06/19 04:12:10;;;;;;;3.17;1.48;;;20.40;93.00;;;;;;5011968;28;20402;-81
2022/06/19 04:14:36;;;;;;;2.25;1.20;;;20.50;93.00;;;;;;5011840;28;20104;-82
2022/06/19 04:17:03;;;;;;;2.35;1.20;;;20.50;92.80;;;;;;5011727;28;20084;-82
2022/06/19 04:19:29;;;;;;;5.40;1.25;;;20.50;92.80;;;;;;5012045;28;20026;-81
2022/06/19 04:21:55;;;;;;;1.38;1.00;;;20.60;92.90;;;;;;5012057;28;20352;-82
2022/06/19 04:24:21;;;;;;;2.30;1.20;;;20.60;92.90;;;;;;5011688;28;20097;-82
2022/06/19 04:26:47;;;;;;;5.45;1.40;;;20.50;93.00;;;;;;5011737;28;20117;-81
2022/06/19 04:29:13;;;;;;;1.90;1.10;;;20.60;92.80;;;;;;5011750;28;20124;-82
2022/06/19 04:31:39;;;;;;;2.28;0.98;;;20.50;93.00;;;;;;5011433;28;20026;-81
2022/06/19 04:34:05;;;;;;;4.45;1.45;;;20.50;93.00;;;;;;5011258;28;20372;-79
2022/06/19 04:36:31;;;;;;;3.67;1.23;;;20.60;93.00;;;;;;5011769;28;20022;-79
2022/06/19 04:38:58;;;;;;;2.05;1.10;;;20.60;92.90;;;;;;5011608;28;20058;-80
2022/06/19 04:41:31;;;;;;;1.13;0.90;;;20.60;92.90;;;;;;5011394;28;20348;-80
2022/06/19 04:43:58;;;;;;;2.42;1.10;;;20.70;92.90;;;;;;5010231;28;20511;-80
2022/06/19 04:46:24;;;;;;;4.23;1.27;;;20.60;92.80;;;;;;5011453;28;20034;-79
2022/06/19 04:48:50;;;;;;;3.38;1.13;;;20.70;92.80;;;;;;5011830;28;20339;-80
2022/06/19 04:51:16;;;;;;;5.38;1.05;;;20.70;92.90;;;;;;5011360;28;20484;-80
2022/06/19 04:53:43;;;;;;;1.35;0.82;;;20.70;92.80;;;;;;5011223;28;20030;-80
2022/06/19 04:56:11;;;;;;;2.47;0.90;;;20.80;92.70;;;;;;5011193;28;20029;-80
2022/06/19 04:58:37;;;;;;;3.42;1.05;;;20.80;92.80;;;;;;5009811;28;20053;-80
2022/06/19 05:01:27;;;;;;;3.00;1.13;;;20.80;92.70;;;;;;5010293;28;20381;-80
2022/06/19 05:03:56;;;;;;;2.03;1.05;;;20.80;92.60;;;;;;5011514;28;20029;-79
2022/06/19 05:06:22;;;;;;;2.00;1.02;;;20.70;92.40;;;;;;5011148;28;20423;-80
2022/06/19 05:08:48;;;;;;;3.88;1.40;;;20.80;92.40;;;;;;5011072;28;20034;-80
2022/06/19 05:11:14;;;;;;;1.80;1.30;;;20.80;92.30;;;;;;5011053;28;20056;-79
2022/06/19 05:13:41;;;;;;;1.80;1.15;;;20.80;92.20;;;;;;5011075;28;20026;-80
2022/06/19 05:16:13;;;;;;;3.42;1.27;;;20.70;92.20;;;;;;5010983;28;20472;-80
2022/06/19 05:18:39;;;;;;;2.53;1.20;;;20.60;92.40;;;;;;5011559;28;20018;-80
2022/06/19 05:21:05;;;;;;;3.08;1.15;;;20.70;92.30;;;;;;5011120;28;20109;-81
2022/06/19 05:23:33;;;;;;;4.50;0.98;;;20.70;92.00;;;;;;5011121;28;20053;-81
2022/06/19 05:26:08;;;;;;;4.30;1.10;;;20.60;92.00;;;;;;5011063;28;20026;-80
2022/06/19 05:28:35;;;;;;;4.43;1.02;;;20.70;91.80;;;;;;5010847;28;20361;-81
2022/06/19 05:31:01;;;;;;;4.63;1.10;;;20.80;91.60;;;;;;5011019;28;20081;-81
2022/06/19 05:33:28;;;;;;;2.70;0.90;;;20.70;91.60;;;;;;5011238;28;20057;-80
2022/06/19 05:35:55;;;;;;;4.70;1.27;;;20.60;91.50;;;;;;5009940;28;20092;-81
2022/06/19 05:38:21;;;;;;;6.13;1.95;;;20.70;91.30;;;;;;5009944;28;20267;-81
2022/06/19 05:40:51;;;;;;;5.18;1.33;;;20.70;91.10;;;;;;5010972;28;20045;-80
2022/06/19 05:43:17;;;;;;;8.32;1.33;;;20.70;90.70;;;;;;5010753;28;20028;-80
2022/06/19 05:45:57;;;;;;;5.85;1.40;;;20.70;90.60;;;;;;5011062;28;20380;-79
2022/06/19 05:48:24;;;;;;;3.17;1.02;;;20.60;90.60;;;;;;5010741;28;20049;-81
2022/06/19 05:51:01;;;;;;;4.23;1.37;;;20.60;90.50;;;;;;5010752;28;20037;-80
2022/06/19 05:53:29;;;;;;;6.75;1.40;;;20.70;90.30;;;;;;5009666;28;20121;-82
2022/06/19 05:55:55;;;;;;;7.97;1.30;;;20.80;90.10;;;;;;5010612;28;20096;-82
2022/06/19 05:58:21;;;;;;;5.13;1.17;;;20.90;89.70;;;;;;5010668;28;20029;-83
2022/06/19 06:00:47;;;;;;;4.03;1.30;;;20.90;89.30;;;;;;5011187;28;20517;-81
2022/06/19 06:03:18;;;;;;;4.80;1.60;;;20.90;88.40;;;;;;5010796;28;20451;-82
2022/06/19 06:05:45;;;;;;;6.70;1.33;;;21.00;88.20;;;;;;5010735;28;20539;-83
2022/06/19 06:08:12;;;;;;;10.02;1.95;;;20.90;87.70;;;;;;5010936;28;20038;-82
2022/06/19 06:10:37;;;;;;;2.17;1.00;;;20.90;87.40;;;;;;5011069;28;20133;-81
2022/06/19 06:13:03;;;;;;;7.18;1.58;;;20.80;87.10;;;;;;5014373;28;20466;-83
2022/06/19 06:15:29;;;;;;;6.75;1.67;;;20.90;86.30;;;;;;5013727;28;20018;-84
2022/06/19 06:17:55;;;;;;;7.68;1.70;;;20.90;85.20;;;;;;5014038;28;20023;-83
2022/06/19 06:20:20;;;;;;;9.27;1.73;;;20.90;85.60;;;;;;5013877;28;20030;-84
2022/06/19 06:22:46;;;;;;;6.55;1.65;;;20.90;84.60;;;;;;5013758;28;20037;-82
2022/06/19 06:25:12;;;;;;;4.97;1.33;;;21.00;83.90;;;;;;5013455;28;20037;-81
2022/06/19 06:27:38;;;;;;;6.00;1.27;;;21.00;83.10;;;;;;5013102;28;20458;-82
2022/06/19 06:30:05;;;;;;;11.50;2.00;;;21.10;82.40;;;;;;5013629;28;20354;-81
2022/06/19 06:32:30;;;;;;;8.38;1.50;;;21.10;83.40;;;;;;5013418;28;20042;-80
2022/06/19 06:34:56;;;;;;;9.38;2.13;;;21.20;83.70;;;;;;5013623;28;20088;-83
2022/06/19 06:37:22;;;;;;;9.95;1.52;;;21.10;82.90;;;;;;5018100;28;20029;-85
2022/06/19 06:39:48;;;;;;;6.45;1.80;;;21.20;81.20;;;;;;5017468;28;20030;-82
2022/06/19 06:42:14;;;;;;;10.02;2.08;;;21.10;81.80;;;;;;5015327;28;20480;-81
2022/06/19 06:44:40;;;;;;;9.20;1.77;;;21.30;80.60;;;;;;5012822;28;20037;-80
2022/06/19 06:47:05;;;;;;;8.45;2.22;;;21.30;80.00;;;;;;5013052;28;20026;-80
2022/06/19 06:49:31;;;;;;;11.63;2.00;;;21.20;78.40;;;;;;5013320;28;20521;-82
2022/06/19 06:51:57;;;;;;;11.43;3.03;;;21.00;79.00;;;;;;5013805;28;20033;-80
2022/06/19 06:54:23;;;;;;;7.72;1.92;;;21.00;78.50;;;;;;5016704;28;20057;-80
2022/06/19 06:56:48;;;;;;;12.65;2.13;;;21.10;78.60;;;;;;5017387;28;20030;-80
2022/06/19 06:59:14;;;;;;;8.05;2.10;;;21.10;78.60;;;;;;5013238;28;20135;-82
2022/06/19 07:01:40;;;;;;;8.77;1.65;;;21.00;78.60;;;;;;5014155;28;20033;-82
2022/06/19 07:04:06;;;;;;;10.43;1.95;;;21.20;78.20;;;;;;5013043;28;20022;-81
2022/06/19 07:06:33;;;;;;;8.88;2.13;;;21.30;77.60;;;;;;5013480;28;20034;-81
2022/06/19 07:08:59;;;;;;;12.30;2.10;;;21.30;78.00;;;;;;5012826;28;20045;-81
2022/06/19 07:11:39;;;;;;;8.35;2.33;;;21.20;77.30;;;;;;5011935;28;20369;-78
2022/06/19 07:14:06;;;;;;;12.82;1.98;;;21.30;77.70;;;;;;5012929;28;20037;-78
2022/06/19 07:16:32;;;;;;;16.35;2.20;;;21.40;77.20;;;;;;5012874;28;20045;-80
2022/06/19 07:18:57;;;;;;;8.85;1.83;;;21.70;77.20;;;;;;5012710;28;20034;-79
2022/06/19 07:21:23;;;;;;;10.20;1.65;;;21.90;76.60;;;;;;5012742;28;20117;-80
2022/06/19 07:23:49;;;;;;;8.98;1.75;;;22.00;76.50;;;;;;5012299;28;20318;-73
2022/06/19 07:26:18;;;;;;;8.23;1.83;;;22.00;76.90;;;;;;5012525;28;20049;-74
2022/06/19 07:28:44;;;;;;;10.90;2.20;;;21.90;76.70;;;;;;5012383;28;20030;-74
2022/06/19 07:31:11;;;;;;;10.32;1.75;;;21.90;77.90;;;;;;5012671;28;20037;-72
2022/06/19 07:33:37;;;;;;;11.07;2.25;;;21.90;77.90;;;;;;5012597;28;20125;-72
2022/06/19 07:36:17;;;;;;;11.02;2.13;;;21.90;77.40;;;;;;5012313;28;20518;-73
2022/06/19 07:38:43;;;;;;;10.77;2.30;;;22.00;77.90;;;;;;5012102;28;20065;-72
2022/06/19 07:41:09;;;;;;;12.13;2.47;;;21.90;77.20;;;;;;5012261;28;20456;-75
2022/06/19 07:43:35;;;;;;;10.30;2.88;;;21.80;77.40;;;;;;5012241;28;20423;-73
2022/06/19 07:46:00;;;;;;;12.85;2.28;;;21.70;80.00;;;;;;5012387;28;20022;-71
2022/06/19 07:51:11;;;;;;;11.00;2.78;;;22.30;78.10;;;;;;5012196;28;20125;-72
2022/06/19 07:53:36;;;;;;;9.60;2.17;;;22.60;78.70;;;;;;5012000;28;20109;-72
2022/06/19 07:56:08;;;;;;;9.23;2.50;;;22.70;77.80;;;;;;5011934;28;20061;-71
2022/06/19 07:58:35;;;;;;;9.65;2.03;;;23.10;77.10;;;;;;5012056;28;20036;-71
2022/06/19 08:01:01;;;;;;;8.52;2.13;;;23.20;77.10;;;;;;5011809;28;20022;-71
2022/06/19 08:03:27;;;;;;;9.15;2.30;;;23.40;76.90;;;;;;5012177;28;20022;-78
2022/06/19 08:05:53;;;;;;;11.65;2.20;;;23.50;76.80;;;;;;5011581;28;20072;-70
2022/06/19 08:08:21;;;;;;;16.38;3.10;;;23.60;77.20;;;;;;5011636;28;20044;-72
2022/06/19 08:10:50;;;;;;;16.02;2.58;;;23.80;77.50;;;;;;5011822;28;20022;-77
2022/06/19 08:13:19;;;;;;;11.45;2.47;;;24.60;75.50;;;;;;5010493;28;20076;-73
2022/06/19 08:15:54;;;;;;;8.77;2.13;;;25.10;74.10;;;;;;5011939;28;20036;-71
2022/06/19 08:18:20;;;;;;;12.02;2.20;;;25.50;72.50;;;;;;5011593;28;20030;-75
2022/06/19 08:20:46;;;;;;;10.50;3.53;;;25.90;70.90;;;;;;5011289;28;20392;-75
2022/06/19 08:23:13;;;;;;;9.23;1.95;;;26.50;69.40;;;;;;5011264;28;20423;-74
2022/06/19 08:25:40;;;;;;;312.10;170.35;;;26.70;68.30;;;;;;5011384;28;20033;-72
2022/06/19 08:28:06;;;;;;;385.85;218.07;;;26.50;70.10;;;;;;5010216;28;20341;-74
2022/06/19 08:30:35;;;;;;;143.38;79.55;;;27.40;67.70;;;;;;5011841;28;20049;-73
2022/06/19 08:33:05;;;;;;;368.52;207.55;;;27.90;66.50;;;;;;5010874;28;20061;-74
2022/06/19 08:35:35;;;;;;;252.95;140.30;;;28.60;66.00;;;;;;5009351;28;20427;-74
2022/06/19 08:38:11;;;;;;;15.25;5.90;;;28.50;63.50;;;;;;5011176;28;20091;-72
2022/06/19 08:41:00;;;;;;;16.20;6.18;;;29.00;63.20;;;;;;5011108;28;20481;-71
2022/06/19 08:43:57;;;;;;;13.77;4.45;;;29.20;61.30;;;;;;5011053;28;20452;-71
2022/06/19 08:46:58;;;;;;;7.87;2.40;;;29.60;63.10;;;;;;5011188;28;20034;-74
2022/06/19 08:49:32;;;;;;;13.48;2.78;;;29.80;59.30;;;;;;5024827;28;20855;-74
2022/06/19 08:52:04;;;;;;;10.07;2.60;;;29.00;60.00;;;;;;4994163;28;20046;-74
2022/06/19 08:54:32;;;;;;;10.45;2.60;;;28.80;59.80;;;;;;5011360;28;20104;-73
2022/06/19 08:57:15;;;;;;;13.43;2.47;;;28.80;61.00;;;;;;5010968;28;20369;-74
2022/06/19 08:59:45;;;;;;;11.35;2.90;;;29.10;60.10;;;;;;5011029;28;20468;-72
2022/06/19 09:02:41;;;;;;;21.67;6.25;;;28.70;60.50;;;;;;5010800;28;20073;-75
2022/06/19 09:05:39;;;;;;;9.15;2.80;;;28.40;61.70;;;;;;5010727;28;20041;-75
2022/06/19 09:08:26;;;;;;;12.65;2.58;;;27.90;62.00;;;;;;5009600;28;20041;-74
2022/06/19 09:11:14;;;;;;;10.40;3.05;;;28.00;62.00;;;;;;5010723;28;20049;-74
2022/06/19 09:13:42;;;;;;;;;;;28.30;60.70;;;;;;5011328;28;20411;-73
2022/06/19 09:16:08;;;;;;;12.27;3.20;;;28.50;61.80;;;;;;5009874;28;20259;-75
2022/06/19 09:19:01;;;;;;;12.63;2.75;;;28.60;61.00;;;;;;5011161;28;20071;-74
2022/06/19 09:21:58;;;;;;;13.73;3.08;;;29.20;60.50;;;;;;5011183;28;20097;-74
2022/06/19 09:24:37;;;;;;;11.47;2.63;;;28.70;60.30;;;;;;5010797;28;20045;-75
2022/06/19 09:27:02;;;;;;;14.40;2.80;;;28.10;61.60;;;;;;5010702;28;20109;-74
2022/06/19 09:29:48;;;;;;;10.35;2.90;;;28.00;62.30;;;;;;5010839;28;20172;-74
2022/06/19 09:32:19;;;;;;;12.50;3.85;;;28.50;61.90;;;;;;5009092;28;20034;-73
2022/06/19 09:35:05;;;;;;;9.45;2.50;;;28.50;64.40;;;;;;5010443;28;20033;-70
2022/06/19 09:37:41;;;;;;;14.60;3.70;;;28.70;63.10;;;;;;5009129;28;20469;-76
2022/06/19 09:40:46;;;;;;;17.15;3.47;;;28.70;62.30;;;;;;5010449;28;20342;-84
2022/06/19 09:43:24;;;;;;;14.55;3.88;;;27.20;63.90;;;;;;5012845;28;20073;-74
2022/06/19 09:45:53;;;;;;;;;;;27.60;64.90;;;;;;5013504;28;20026;-75
2022/06/19 09:48:29;;;;;;;8.95;2.88;;;27.70;63.50;;;;;;5014188;28;19924;-77
2022/06/19 09:50:58;;;;;;;12.55;3.20;;;27.60;63.60;;;;;;5014220;28;20422;-73
2022/06/19 09:53:32;;;;;;;10.65;3.22;;;27.40;61.90;;;;;;5013105;28;20104;-73
2022/06/19 09:56:06;;;;;;;18.80;3.40;;;27.20;61.70;;;;;;5014313;28;20034;-72
2022/06/19 09:58:45;;;;;;;10.45;2.58;;;26.90;61.30;;;;;;5014279;28;20632;-73
2022/06/19 10:01:11;;;;;;;11.60;2.53;;;26.80;61.20;;;;;;5014267;28;20014;-73
2022/06/19 10:03:42;;;;;;;11.77;2.60;;;26.60;62.10;;;;;;5014252;28;20075;-72
2022/06/19 10:06:33;;;;;;;13.80;3.20;;;26.10;61.40;;;;;;5013954;28;20034;-71
2022/06/19 10:09:10;;;;;;;8.55;3.30;;;26.10;62.90;;;;;;5013877;28;20050;-71
2022/06/19 10:11:41;;;;;;;12.10;2.30;;;26.10;61.50;;;;;;5013675;28;20406;-71
2022/06/19 10:14:42;;;;;;;13.82;3.10;;;26.30;63.00;;;;;;5013516;28;20045;-72
2022/06/19 10:17:34;;;;;;;10.18;2.38;;;26.40;61.40;;;;;;5013605;28;20261;-72
2022/06/19 10:20:16;;;;;;;8.27;2.17;;;26.40;60.90;;;;;;5012415;28;20095;-71
2022/06/19 10:22:56;;;;;;;9.48;2.58;;;26.60;62.00;;;;;;5010123;28;20430;-71
2022/06/19 10:25:45;;;;;;;9.07;2.38;;;26.50;61.70;;;;;;5017039;28;20044;-71
2022/06/19 10:28:33;;;;;;;10.02;2.63;;;26.80;61.50;;;;;;5033299;28;20021;-72
2022/06/19 10:31:26;;;;;;;14.40;3.38;;;27.30;61.30;;;;;;5033787;28;20293;-72
2022/06/19 10:33:55;;;;;;;11.80;2.63;;;27.20;60.80;;;;;;5033456;28;20065;-72
2022/06/19 10:36:27;;;;;;;11.40;3.15;;;26.70;60.80;;;;;;5031941;28;20312;-71
2022/06/19 10:39:12;;;;;;;13.05;3.30;;;26.60;61.40;;;;;;5033045;28;20029;-71
2022/06/19 10:42:04;;;;;;;11.68;2.90;;;26.30;61.30;;;;;;5030058;28;20398;-70
2022/06/19 10:44:36;;;;;;;16.30;3.72;;;26.50;61.60;;;;;;5033316;28;20037;-71
2022/06/19 10:47:11;;;;;;;11.82;3.70;;;26.40;62.30;;;;;;5033026;28;20405;-71
2022/06/19 10:50:04;;;;;;;16.52;2.92;;;26.50;62.90;;;;;;5033069;28;20029;-70
2022/06/19 10:52:36;;;;;;;11.07;2.53;;;26.80;62.10;;;;;;5032873;28;20025;-72
2022/06/19 10:55:17;;;;;;;11.50;2.63;;;27.40;61.30;;;;;;5032546;28;20526;-70
2022/06/19 10:58:09;;;;;;;11.50;2.78;;;27.00;61.10;;;;;;5032684;28;20112;-72
2022/06/19 11:00:35;;;;;;;7.03;2.40;;;26.90;61.30;;;;;;5032883;28;20099;-71
2022/06/19 11:06:27;;;;;;;10.85;2.30;;;27.00;61.80;;;;;;5032867;28;20133;-72
2022/06/19 11:09:03;;;;;;;11.25;3.15;;;27.20;62.30;;;;;;5032764;28;20515;-72
2022/06/19 11:11:32;;;;;;;10.95;2.40;;;27.10;62.40;;;;;;5032099;28;20463;-71
2022/06/19 11:14:07;;;;;;;13.55;2.92;;;26.80;62.40;;;;;;5032315;28;20053;-73
2022/06/19 11:16:50;;;;;;;11.35;2.85;;;26.70;62.80;;;;;;5032650;28;20029;-73
2022/06/19 11:19:33;;;;;;;13.15;3.78;;;27.00;64.50;;;;;;5032054;28;20037;-71
2022/06/19 11:21:59;;;;;;;16.85;3.17;;;26.90;62.60;;;;;;5032292;28;20087;-69
2022/06/19 11:24:31;;;;;;;13.90;3.00;;;26.60;63.20;;;;;;5032881;28;20345;-68
2022/06/19 11:26:57;;;;;;;11.02;2.83;;;26.20;64.10;;;;;;5032128;28;20104;-69
2022/06/19 11:29:25;;;;;;;18.23;3.88;;;26.30;64.60;;;;;;5032042;28;20056;-71
2022/06/19 11:32:11;;;;;;;13.85;3.40;;;26.40;64.00;;;;;;5032080;28;20025;-68
2022/06/19 11:34:44;;;;;;;8.95;2.42;;;26.30;65.90;;;;;;5030593;28;20048;-70
2022/06/19 11:37:31;;;;;;;9.00;2.50;;;26.60;64.80;;;;;;5028740;28;20025;-71
2022/06/19 11:40:00;;;;;;;9.07;3.00;;;26.60;65.10;;;;;;5033058;28;20010;-71
2022/06/19 11:42:38;;;;;;;10.48;3.00;;;26.80;65.20;;;;;;5030935;28;20073;-71
2022/06/19 11:45:09;;;;;;;13.80;3.75;;;27.10;64.40;;;;;;5032125;28;20168;-70
2022/06/19 11:48:00;;;;;;;12.48;2.88;;;27.30;65.80;;;;;;5032143;28;20025;-74
2022/06/19 11:50:35;;;;;;;11.02;1.98;;;27.50;64.00;;;;;;5028936;28;20030;-74
2022/06/19 11:53:08;;;;;;;11.00;2.65;;;27.40;63.50;;;;;;5031772;28;20087;-72
2022/06/19 11:55:49;;;;;;;9.90;2.90;;;27.00;63.40;;;;;;5031997;28;20022;-73
2022/06/19 11:58:42;;;;;;;12.43;2.97;;;26.70;64.00;;;;;;5031800;28;20024;-72
2022/06/19 12:01:16;;;;;;;10.38;2.78;;;26.70;64.00;;;;;;5031535;28;20029;-73
2022/06/19 12:04:06;;;;;;;11.00;3.70;;;26.60;64.60;;;;;;5031799;28;20418;-73
2022/06/19 12:06:40;;;;;;;10.70;2.55;;;26.70;64.70;;;;;;5031242;28;20040;-73
2022/06/19 12:09:26;;;;;;;15.80;3.92;;;26.70;64.40;;;;;;5031181;28;20374;-72
2022/06/19 12:12:00;;;;;;;12.02;2.85;;;26.60;65.10;;;;;;5031307;28;20030;-72
2022/06/19 12:14:32;;;;;;;10.23;2.65;;;26.70;64.50;;;;;;5030108;28;20061;-72
2022/06/19 12:17:16;;;;;;;12.50;3.08;;;26.30;64.60;;;;;;5031054;28;20466;-71
2022/06/19 12:19:56;;;;;;;12.70;2.95;;;26.40;64.80;;;;;;5031026;28;20206;-72
2022/06/19 12:22:45;;;;;;;14.90;3.35;;;26.60;64.70;;;;;;5031086;28;20029;-72
2022/06/19 12:25:31;;;;;;;13.30;2.90;;;26.70;65.00;;;;;;5020051;28;20360;-72
2022/06/19 12:28:28;;;;;;;13.35;2.97;;;27.10;64.70;;;;;;5012158;28;20033;-72
2022/06/19 12:31:12;;;;;;;12.23;2.85;;;26.60;63.70;;;;;;5010158;28;20108;-71
2022/06/19 12:33:50;;;;;;;10.77;3.40;;;26.50;64.60;;;;;;5011581;28;20460;-71
2022/06/19 12:36:18;;;;;;;11.27;3.33;;;26.30;64.80;;;;;;5011307;28;20033;-70
2022/06/19 12:38:45;;;;;;;10.73;3.45;;;26.20;64.80;;;;;;5010201;28;20118;-71
2022/06/19 12:41:33;;;;;;;15.25;3.70;;;26.00;65.50;;;;;;5009855;28;20490;-71
2022/06/19 12:44:25;;;;;;;21.05;5.45;;;25.90;65.30;;;;;;5011441;28;20037;-72
2022/06/19 12:47:06;;;;;;;10.45;2.70;;;25.80;65.40;;;;;;5011335;28;20022;-72
2022/06/19 12:49:50;;;;;;;9.93;2.65;;;26.00;65.10;;;;;;5011289;28;20026;-70
2022/06/19 12:53:07;;;;;;;8.63;2.47;;;26.30;65.60;;;;;;5010666;28;20040;-70
2022/06/19 12:55:33;;;;;;;;;;;26.40;65.50;;;;;;5009983;28;20096;-71
2022/06/19 12:58:15;;;;;;;11.23;3.13;;;26.40;66.90;;;;;;5011273;28;19909;-72
2022/06/19 13:00:59;;;;;;;9.60;2.75;;;26.40;66.20;;;;;;5011309;28;20026;-72
2022/06/19 13:04:03;;;;;;;9.27;2.40;;;26.60;65.10;;;;;;5010973;28;20076;-70
2022/06/19 13:07:00;;;;;;;10.25;2.83;;;26.80;65.70;;;;;;5010948;28;20072;-71
2022/06/19 13:09:31;;;;;;;;;;;26.70;66.80;;;;;;5011247;28;20179;-71
2022/06/19 13:12:09;;;;;;;13.40;3.03;;;26.90;66.30;;;;;;5010725;28;19929;-70
2022/06/19 13:14:42;;;;;;;;;;;26.60;65.30;;;;;;5011286;28;20034;-69